createdAt,value
2018-02-16T00:00:24.683Z,1009.42
2018-02-16T00:01:24.734Z,1009.40
2018-02-16T00:02:24.785Z,1009.45
2018-02-16T00:03:24.839Z,1009.38
2018-02-16T00:04:24.893Z,1009.42
2018-02-16T00:05:24.947Z,1009.51
2018-02-16T00:06:25.003Z,1009.45
2018-02-16T00:07:25.057Z,1009.53
2018-02-16T00:08:25.112Z,1009.54
2018-02-16T00:09:25.168Z,1009.56
2018-02-16T00:10:25.220Z,1009.58
2018-02-16T00:11:25.278Z,1009.58
2018-02-16T00:12:25.329Z,1009.63
2018-02-16T00:13:25.385Z,1009.71
2018-02-16T00:14:25.439Z,1009.76
2018-02-16T00:15:25.495Z,1009.76
2018-02-16T00:16:26.286Z,1009.75
2018-02-16T00:17:25.602Z,1009.72
2018-02-16T00:18:26.335Z,1009.78
2018-02-16T00:19:25.713Z,1009.78
2018-02-16T00:20:25.765Z,1009.70
2018-02-16T00:21:25.820Z,1009.71
2018-02-16T00:22:25.875Z,1009.78
2018-02-16T00:23:25.930Z,1009.77
2018-02-16T00:24:25.983Z,1009.81
2018-02-16T00:25:26.038Z,1009.85
2018-02-16T00:26:26.093Z,1009.84
2018-02-16T00:27:26.148Z,1009.90
2018-02-16T00:28:26.203Z,1009.87
2018-02-16T00:29:26.255Z,1009.90
2018-02-16T00:30:26.309Z,1009.87
2018-02-16T00:31:26.365Z,1009.95
2018-02-16T00:32:26.418Z,1009.95
2018-02-16T00:33:26.476Z,1009.90
2018-02-16T00:34:26.529Z,1009.79
2018-02-16T00:35:26.583Z,1009.75
2018-02-16T00:36:26.636Z,1009.71
2018-02-16T00:37:26.690Z,1009.70
2018-02-16T00:38:26.745Z,1009.75
2018-02-16T00:39:26.800Z,1009.78
2018-02-16T00:40:26.852Z,1009.83
2018-02-16T00:41:26.908Z,1009.86
2018-02-16T00:42:26.961Z,1009.90
2018-02-16T00:43:27.016Z,1009.89
2018-02-16T00:44:27.220Z,1009.91
2018-02-16T00:45:27.124Z,1009.94
2018-02-16T00:46:27.177Z,1009.93
2018-02-16T00:47:27.232Z,1009.90
2018-02-16T00:48:27.285Z,1009.92
2018-02-16T00:49:27.340Z,1009.95
2018-02-16T00:50:27.394Z,1009.99
2018-02-16T00:51:27.450Z,1010.04
2018-02-16T00:52:27.502Z,1010.08
2018-02-16T00:53:27.557Z,1010.09
2018-02-16T00:54:27.614Z,1010.20
2018-02-16T00:55:27.665Z,1010.20
2018-02-16T00:56:27.720Z,1010.21
2018-02-16T00:57:27.774Z,1010.28
2018-02-16T00:58:27.825Z,1010.29
2018-02-16T00:59:27.881Z,1010.33
2018-02-16T01:00:27.932Z,1010.35
2018-02-16T01:01:27.988Z,1010.34
2018-02-16T01:02:28.042Z,1010.35
2018-02-16T01:03:28.094Z,1010.42
2018-02-16T01:04:28.149Z,1010.43
2018-02-16T01:05:28.202Z,1010.42
2018-02-16T01:06:28.256Z,1010.45
2018-02-16T01:07:28.310Z,1010.47
2018-02-16T01:08:28.364Z,1010.49
2018-02-16T01:09:28.418Z,1010.50
2018-02-16T01:10:28.470Z,1010.60
2018-02-16T01:11:28.525Z,1010.59
2018-02-16T01:12:28.579Z,1010.61
2018-02-16T01:13:28.633Z,1010.63
2018-02-16T01:14:28.686Z,1010.59
2018-02-16T01:15:28.739Z,1010.63
2018-02-16T01:16:28.792Z,1010.63
2018-02-16T01:17:28.845Z,1010.61
2018-02-16T01:18:28.900Z,1010.64
2018-02-16T01:19:28.953Z,1010.58
2018-02-16T01:20:29.007Z,1010.65
2018-02-16T01:21:29.060Z,1010.63
2018-02-16T01:22:29.117Z,1010.65
2018-02-16T01:23:29.173Z,1010.62
2018-02-16T01:24:29.220Z,1010.70
2018-02-16T01:25:29.275Z,1010.63
2018-02-16T01:26:29.329Z,1010.65
2018-02-16T01:27:29.386Z,1010.60
2018-02-16T01:28:29.434Z,1010.63
2018-02-16T01:29:29.489Z,1010.60
2018-02-16T01:30:29.543Z,1010.60
2018-02-16T01:31:29.596Z,1010.65
2018-02-16T01:32:29.650Z,1010.68
2018-02-16T01:33:29.704Z,1010.70
2018-02-16T01:34:29.757Z,1010.68
2018-02-16T01:35:29.812Z,1010.63
2018-02-16T01:36:29.864Z,1010.68
2018-02-16T01:37:29.917Z,1010.70
2018-02-16T01:38:29.973Z,1010.71
2018-02-16T01:39:30.026Z,1010.68
2018-02-16T01:40:30.078Z,1010.68
2018-02-16T01:41:30.132Z,1010.68
2018-02-16T01:42:30.185Z,1010.74
2018-02-16T01:43:30.240Z,1010.74
2018-02-16T01:44:30.291Z,1010.76
2018-02-16T01:45:30.348Z,1010.76
2018-02-16T01:46:30.400Z,1010.83
2018-02-16T01:47:30.454Z,1010.80
2018-02-16T01:48:30.507Z,1010.88
2018-02-16T01:49:30.560Z,1010.91
2018-02-16T01:50:30.615Z,1010.85
2018-02-16T01:51:30.668Z,1010.80
2018-02-16T01:52:30.721Z,1010.80
2018-02-16T01:53:30.776Z,1010.76
2018-02-16T01:54:30.829Z,1010.80
2018-02-16T01:55:30.882Z,1010.81
2018-02-16T01:56:30.936Z,1010.80
2018-02-16T01:57:30.988Z,1010.82
2018-02-16T01:58:31.046Z,1010.90
2018-02-16T01:59:31.097Z,1010.91
2018-02-16T02:00:31.150Z,1010.94
2018-02-16T02:01:31.237Z,1010.92
2018-02-16T02:02:31.261Z,1010.88
2018-02-16T02:03:31.311Z,1010.90
2018-02-16T02:04:31.366Z,1010.93
2018-02-16T02:05:31.419Z,1010.87
2018-02-16T02:06:31.472Z,1010.91
2018-02-16T02:07:31.525Z,1010.91
2018-02-16T02:08:31.578Z,1010.92
2018-02-16T02:09:31.782Z,1010.95
2018-02-16T02:10:31.686Z,1010.96
2018-02-16T02:11:31.740Z,1010.95
2018-02-16T02:12:31.794Z,1010.94
2018-02-16T02:13:31.847Z,1011.02
2018-02-16T02:14:31.901Z,1011.00
2018-02-16T02:15:31.960Z,1011.09
2018-02-16T02:16:32.007Z,1011.12
2018-02-16T02:17:32.061Z,1011.15
2018-02-16T02:18:32.116Z,1011.15
2018-02-16T02:19:32.170Z,1011.14
2018-02-16T02:20:32.222Z,1011.11
2018-02-16T02:21:32.278Z,1011.06
2018-02-16T02:22:32.331Z,1011.13
2018-02-16T02:23:32.383Z,1011.15
2018-02-16T02:24:32.463Z,1011.13
2018-02-16T02:25:32.492Z,1011.09
2018-02-16T02:26:32.602Z,1011.10
2018-02-16T02:27:32.640Z,1011.13
2018-02-16T02:28:32.690Z,1011.14
2018-02-16T02:29:32.747Z,1011.12
2018-02-16T02:30:32.805Z,1011.16
2018-02-16T02:31:32.811Z,1011.18
2018-02-16T02:32:33.083Z,1011.18
2018-02-16T02:33:32.970Z,1011.25
2018-02-16T02:34:33.006Z,1011.29
2018-02-16T02:35:33.061Z,1011.23
2018-02-16T02:36:33.114Z,1011.33
2018-02-16T02:37:33.177Z,1011.29
2018-02-16T02:38:33.188Z,1011.30
2018-02-16T02:39:33.242Z,1011.35
2018-02-16T02:40:33.294Z,1011.37
2018-02-16T02:41:33.348Z,1011.37
2018-02-16T02:42:33.401Z,1011.41
2018-02-16T02:43:33.457Z,1011.37
2018-02-16T02:44:33.512Z,1011.41
2018-02-16T02:45:33.562Z,1011.39
2018-02-16T02:46:33.659Z,1011.39
2018-02-16T02:47:33.703Z,1011.47
2018-02-16T02:48:33.722Z,1011.49
2018-02-16T02:49:33.776Z,1011.51
2018-02-16T02:50:33.831Z,1011.49
2018-02-16T02:51:33.883Z,1011.49
2018-02-16T02:52:33.939Z,1011.47
2018-02-16T02:53:33.991Z,1011.46
2018-02-16T02:54:34.044Z,1011.43
2018-02-16T02:55:34.101Z,1011.42
2018-02-16T02:56:34.151Z,1011.38
2018-02-16T02:57:34.205Z,1011.44
2018-02-16T02:58:34.259Z,1011.48
2018-02-16T02:59:34.312Z,1011.50
2018-02-16T03:00:34.365Z,1011.47
2018-02-16T03:01:34.418Z,1011.49
2018-02-16T03:02:34.473Z,1011.50
2018-02-16T03:03:34.526Z,1011.51
2018-02-16T03:04:34.581Z,1011.49
2018-02-16T03:05:34.632Z,1011.48
2018-02-16T03:06:34.685Z,1011.47
2018-02-16T03:07:34.740Z,1011.53
2018-02-16T03:08:34.791Z,1011.52
2018-02-16T03:09:34.846Z,1011.58
2018-02-16T03:10:34.901Z,1011.55
2018-02-16T03:11:34.954Z,1011.61
2018-02-16T03:12:35.006Z,1011.64
2018-02-16T03:13:35.061Z,1011.62
2018-02-16T03:14:35.114Z,1011.59
2018-02-16T03:15:35.167Z,1011.54
2018-02-16T03:16:35.221Z,1011.57
2018-02-16T03:17:35.275Z,1011.65
2018-02-16T03:18:35.329Z,1011.61
2018-02-16T03:19:35.384Z,1011.66
2018-02-16T03:20:35.435Z,1011.68
2018-02-16T03:21:35.490Z,1011.66
2018-02-16T03:22:35.547Z,1011.65
2018-02-16T03:23:35.597Z,1011.72
2018-02-16T03:24:35.650Z,1011.73
2018-02-16T03:25:35.703Z,1011.74
2018-02-16T03:26:35.757Z,1011.76
2018-02-16T03:27:35.811Z,1011.74
2018-02-16T03:28:36.014Z,1011.74
2018-02-16T03:29:35.917Z,1011.79
2018-02-16T03:30:35.972Z,1011.80
2018-02-16T03:31:36.033Z,1011.84
2018-02-16T03:32:36.079Z,1011.89
2018-02-16T03:33:36.132Z,1011.92
2018-02-16T03:34:36.186Z,1011.89
2018-02-16T03:35:36.239Z,1012.00
2018-02-16T03:36:36.293Z,1012.03
2018-02-16T03:37:36.345Z,1012.04
2018-02-16T03:38:36.404Z,1012.02
2018-02-16T03:39:36.452Z,1012.06
2018-02-16T03:40:36.505Z,1012.09
2018-02-16T03:41:36.561Z,1012.09
2018-02-16T03:42:36.613Z,1012.09
2018-02-16T03:43:36.666Z,1012.09
2018-02-16T03:44:36.720Z,1012.07
2018-02-16T03:45:36.775Z,1012.03
2018-02-16T03:46:36.826Z,1012.01
2018-02-16T03:47:36.880Z,1012.03
2018-02-16T03:48:36.932Z,1012.02
2018-02-16T03:49:36.986Z,1012.03
2018-02-16T03:50:37.039Z,1012.00
2018-02-16T03:51:37.094Z,1012.02
2018-02-16T03:52:37.145Z,1011.99
2018-02-16T03:53:37.202Z,1012.03
2018-02-16T03:54:37.253Z,1012.11
2018-02-16T03:55:37.307Z,1012.10
2018-02-16T03:56:37.360Z,1012.14
2018-02-16T03:57:37.412Z,1012.15
2018-02-16T03:58:37.466Z,1012.18
2018-02-16T03:59:37.518Z,1012.22
2018-02-16T04:00:37.571Z,1012.22
2018-02-16T04:01:37.624Z,1012.17
2018-02-16T04:02:37.678Z,1012.19
2018-02-16T04:03:37.730Z,1012.25
2018-02-16T04:04:37.784Z,1012.27
2018-02-16T04:05:37.837Z,1012.30
2018-02-16T04:06:37.891Z,1012.32
2018-02-16T04:07:37.944Z,1012.26
2018-02-16T04:08:37.996Z,1012.31
2018-02-16T04:09:38.049Z,1012.33
2018-02-16T04:10:38.104Z,1012.31
2018-02-16T04:11:38.156Z,1012.33
2018-02-16T04:12:38.209Z,1012.34
2018-02-16T04:13:38.263Z,1012.34
2018-02-16T04:14:38.316Z,1012.36
2018-02-16T04:15:38.369Z,1012.37
2018-02-16T04:16:38.421Z,1012.40
2018-02-16T04:17:38.477Z,1012.37
2018-02-16T04:18:38.529Z,1012.39
2018-02-16T04:19:38.582Z,1012.41
2018-02-16T04:20:38.634Z,1012.42
2018-02-16T04:21:38.690Z,1012.45
2018-02-16T04:22:38.741Z,1012.45
2018-02-16T04:23:38.793Z,1012.45
2018-02-16T04:24:38.847Z,1012.46
2018-02-16T04:25:38.900Z,1012.43
2018-02-16T04:26:38.955Z,1012.47
2018-02-16T04:27:39.010Z,1012.46
2018-02-16T04:28:39.059Z,1012.44
2018-02-16T04:29:39.112Z,1012.49
2018-02-16T04:30:39.166Z,1012.49
2018-02-16T04:31:39.220Z,1012.56
2018-02-16T04:32:39.275Z,1012.56
2018-02-16T04:33:39.324Z,1012.60
2018-02-16T04:34:39.377Z,1012.63
2018-02-16T04:35:39.430Z,1012.62
2018-02-16T04:36:39.483Z,1012.63
2018-02-16T04:37:39.687Z,1012.61
2018-02-16T04:38:39.591Z,1012.61
2018-02-16T04:39:39.643Z,1012.63
2018-02-16T04:40:39.695Z,1012.62
2018-02-16T04:41:39.748Z,1012.62
2018-02-16T04:42:39.801Z,1012.65
2018-02-16T04:43:39.854Z,1012.66
2018-02-16T04:44:39.906Z,1012.64
2018-02-16T04:45:39.960Z,1012.71
2018-02-16T04:46:40.013Z,1012.71
2018-02-16T04:47:40.066Z,1012.70
2018-02-16T04:48:40.118Z,1012.74
2018-02-16T04:49:40.171Z,1012.75
2018-02-16T04:50:40.225Z,1012.78
2018-02-16T04:51:40.276Z,1012.81
2018-02-16T04:52:40.329Z,1012.83
2018-02-16T04:53:40.382Z,1012.85
2018-02-16T04:54:40.636Z,1012.87
2018-02-16T04:55:40.488Z,1012.84
2018-02-16T04:56:40.549Z,1012.86
2018-02-16T04:57:40.594Z,1012.85
2018-02-16T04:58:40.647Z,1012.87
2018-02-16T04:59:40.735Z,1012.87
2018-02-16T05:00:40.817Z,1012.85
2018-02-16T05:01:41.215Z,1012.86
2018-02-16T05:02:40.858Z,1012.90
2018-02-16T05:03:40.910Z,1012.89
2018-02-16T05:04:40.963Z,1012.90
2018-02-16T05:05:41.016Z,1012.89
2018-02-16T05:06:41.070Z,1012.96
2018-02-16T05:07:41.122Z,1012.97
2018-02-16T05:08:41.173Z,1012.98
2018-02-16T05:09:41.227Z,1012.96
2018-02-16T05:10:42.480Z,1012.97
2018-02-16T05:11:41.334Z,1013.00
2018-02-16T05:12:41.391Z,1013.10
2018-02-16T05:13:41.438Z,1013.12
2018-02-16T05:14:41.491Z,1013.17
2018-02-16T05:15:41.543Z,1013.19
2018-02-16T05:16:41.596Z,1013.18
2018-02-16T05:17:41.649Z,1013.21
2018-02-16T05:18:41.701Z,1013.21
2018-02-16T05:19:41.755Z,1013.25
2018-02-16T05:20:41.806Z,1013.19
2018-02-16T05:21:41.860Z,1013.22
2018-02-16T05:22:41.913Z,1013.21
2018-02-16T05:23:41.964Z,1013.26
2018-02-16T05:24:42.017Z,1013.28
2018-02-16T05:25:42.068Z,1013.27
2018-02-16T05:26:42.122Z,1013.22
2018-02-16T05:27:42.175Z,1013.24
2018-02-16T05:28:42.227Z,1013.20
2018-02-16T05:29:42.430Z,1013.26
2018-02-16T05:30:42.334Z,1013.23
2018-02-16T05:31:42.386Z,1013.26
2018-02-16T05:32:42.439Z,1013.30
2018-02-16T05:33:42.492Z,1013.28
2018-02-16T05:34:42.544Z,1013.32
2018-02-16T05:35:42.596Z,1013.34
2018-02-16T05:36:42.651Z,1013.37
2018-02-16T05:37:42.700Z,1013.43
2018-02-16T05:38:42.752Z,1013.49
2018-02-16T05:39:43.041Z,1013.48
2018-02-16T05:40:42.857Z,1013.53
2018-02-16T05:41:42.910Z,1013.52
2018-02-16T05:42:42.964Z,1013.63
2018-02-16T05:43:43.017Z,1013.59
2018-02-16T05:44:43.067Z,1013.57
2018-02-16T05:45:43.122Z,1013.57
2018-02-16T05:46:43.173Z,1013.57
2018-02-16T05:47:43.227Z,1013.59
2018-02-16T05:48:43.279Z,1013.59
2018-02-16T05:49:43.331Z,1013.64
2018-02-16T05:50:43.384Z,1013.61
2018-02-16T05:51:43.436Z,1013.65
2018-02-16T05:52:43.489Z,1013.66
2018-02-16T05:53:43.542Z,1013.63
2018-02-16T05:54:43.596Z,1013.64
2018-02-16T05:55:43.646Z,1013.68
2018-02-16T05:56:43.703Z,1013.69
2018-02-16T05:57:43.751Z,1013.71
2018-02-16T05:58:43.804Z,1013.74
2018-02-16T05:59:43.858Z,1013.73
2018-02-16T06:00:43.910Z,1013.74
2018-02-16T06:01:43.963Z,1013.73
2018-02-16T06:02:44.016Z,1013.75
2018-02-16T06:03:44.068Z,1013.77
2018-02-16T06:04:44.154Z,1013.77
2018-02-16T06:05:44.173Z,1013.79
2018-02-16T06:06:44.226Z,1013.74
2018-02-16T06:07:44.283Z,1013.77
2018-02-16T06:08:44.581Z,1013.77
2018-02-16T06:09:44.383Z,1013.73
2018-02-16T06:10:44.436Z,1013.75
2018-02-16T06:11:44.489Z,1013.73
2018-02-16T06:12:44.540Z,1013.77
2018-02-16T06:13:44.591Z,1013.82
2018-02-16T06:14:44.651Z,1013.84
2018-02-16T06:15:44.699Z,1013.88
2018-02-16T06:16:44.751Z,1013.88
2018-02-16T06:17:44.804Z,1013.95
2018-02-16T06:18:44.857Z,1013.97
2018-02-16T06:19:44.910Z,1013.98
2018-02-16T06:20:44.996Z,1014.02
2018-02-16T06:21:45.017Z,1014.02
2018-02-16T06:22:45.067Z,1014.04
2018-02-16T06:23:45.121Z,1014.06
2018-02-16T06:24:45.173Z,1014.03
2018-02-16T06:25:45.257Z,1014.01
2018-02-16T06:26:45.277Z,1014.01
2018-02-16T06:27:45.331Z,1014.04
2018-02-16T06:28:45.382Z,1014.06
2018-02-16T06:29:45.435Z,1014.10
2018-02-16T06:30:45.487Z,1014.07
2018-02-16T06:31:45.540Z,1014.08
2018-02-16T06:32:45.592Z,1014.09
2018-02-16T06:33:45.650Z,1014.10
2018-02-16T06:34:45.697Z,1014.15
2018-02-16T06:35:45.751Z,1014.19
2018-02-16T06:36:45.801Z,1014.23
2018-02-16T06:37:45.888Z,1014.23
2018-02-16T06:38:45.907Z,1014.27
2018-02-16T06:39:46.334Z,1014.30
2018-02-16T06:40:46.011Z,1014.27
2018-02-16T06:41:46.064Z,1014.22
2018-02-16T06:42:46.117Z,1014.31
2018-02-16T06:43:46.172Z,1014.28
2018-02-16T06:44:46.222Z,1014.31
2018-02-16T06:45:46.274Z,1014.34
2018-02-16T06:46:46.327Z,1014.31
2018-02-16T06:47:46.383Z,1014.39
2018-02-16T06:48:46.431Z,1014.37
2018-02-16T06:49:46.484Z,1014.33
2018-02-16T06:50:46.538Z,1014.35
2018-02-16T06:51:46.590Z,1014.33
2018-02-16T06:52:46.642Z,1014.34
2018-02-16T06:53:46.695Z,1014.33
2018-02-16T06:54:47.393Z,1014.34
2018-02-16T06:55:46.801Z,1014.39
2018-02-16T06:56:46.852Z,1014.37
2018-02-16T06:57:46.905Z,1014.41
2018-02-16T06:58:46.957Z,1014.41
2018-02-16T06:59:47.010Z,1014.46
2018-02-16T07:00:47.071Z,1014.44
2018-02-16T07:01:47.115Z,1014.44
2018-02-16T07:02:47.168Z,1014.50
2018-02-16T07:03:47.220Z,1014.47
2018-02-16T07:04:47.279Z,1014.47
2018-02-16T07:05:47.332Z,1014.48
2018-02-16T07:06:47.760Z,1014.54
2018-02-16T07:07:47.430Z,1014.51
2018-02-16T07:08:47.481Z,1014.56
2018-02-16T07:09:47.573Z,1014.57
2018-02-16T07:10:48.063Z,1014.58
2018-02-16T07:11:47.640Z,1014.63
2018-02-16T07:12:47.691Z,1014.67
2018-02-16T07:13:47.743Z,1014.64
2018-02-16T07:14:47.797Z,1014.74
2018-02-16T07:15:47.849Z,1014.77
2018-02-16T07:16:47.902Z,1014.81
2018-02-16T07:17:47.953Z,1014.82
2018-02-16T07:18:48.008Z,1014.83
2018-02-16T07:19:48.060Z,1014.80
2018-02-16T07:20:48.113Z,1014.83
2018-02-16T07:21:48.164Z,1014.81
2018-02-16T07:22:48.218Z,1014.88
2018-02-16T07:23:49.062Z,1014.89
2018-02-16T07:24:48.322Z,1014.92
2018-02-16T07:25:48.375Z,1014.94
2018-02-16T07:26:48.428Z,1014.94
2018-02-16T07:27:48.480Z,1014.94
2018-02-16T07:28:48.533Z,1014.95
2018-02-16T07:29:48.789Z,1014.97
2018-02-16T07:30:48.638Z,1015.00
2018-02-16T07:31:48.692Z,1015.00
2018-02-16T07:32:49.273Z,1015.01
2018-02-16T07:33:48.796Z,1015.01
2018-02-16T07:34:49.432Z,1015.02
2018-02-16T07:35:49.154Z,1015.02
2018-02-16T07:36:48.956Z,1015.03
2018-02-16T07:37:49.009Z,1015.04
2018-02-16T07:38:49.062Z,1015.03
2018-02-16T07:39:49.115Z,1015.06
2018-02-16T07:40:49.166Z,1015.06
2018-02-16T07:41:49.223Z,1015.01
2018-02-16T07:42:49.273Z,1015.08
2018-02-16T07:43:49.326Z,1015.11
2018-02-16T07:44:49.380Z,1015.10
2018-02-16T07:45:49.431Z,1015.10
2018-02-16T07:46:49.490Z,1015.10
2018-02-16T07:47:49.538Z,1015.08
2018-02-16T07:48:49.595Z,1015.08
2018-02-16T07:49:51.066Z,1015.14
2018-02-16T07:50:49.697Z,1015.11
2018-02-16T07:51:49.750Z,1015.16
2018-02-16T07:52:49.802Z,1015.20
2018-02-16T07:53:49.856Z,1015.21
2018-02-16T07:54:49.914Z,1015.22
2018-02-16T07:55:50.445Z,1015.27
2018-02-16T07:56:50.686Z,1015.29
2018-02-16T07:57:50.791Z,1015.30
2018-02-16T07:58:50.830Z,1015.34
2018-02-16T07:59:50.857Z,1015.33
2018-02-16T08:00:50.237Z,1015.32
2018-02-16T08:01:50.875Z,1015.39
2018-02-16T08:02:50.333Z,1015.38
2018-02-16T08:03:50.388Z,1015.43
2018-02-16T08:04:50.441Z,1015.40
2018-02-16T08:05:50.492Z,1015.45
2018-02-16T08:06:50.547Z,1015.43
2018-02-16T08:07:50.599Z,1015.44
2018-02-16T08:08:50.652Z,1015.43
2018-02-16T08:09:50.720Z,1015.43
2018-02-16T08:10:50.759Z,1015.44
2018-02-16T08:11:50.813Z,1015.51
2018-02-16T08:12:50.871Z,1015.49
2018-02-16T08:13:50.919Z,1015.50
2018-02-16T08:14:50.973Z,1015.55
2018-02-16T08:15:51.400Z,1015.58
2018-02-16T08:16:51.079Z,1015.58
2018-02-16T08:17:51.132Z,1015.60
2018-02-16T08:18:51.185Z,1015.60
2018-02-16T08:19:51.240Z,1015.62
2018-02-16T08:20:51.297Z,1015.69
2018-02-16T08:21:51.348Z,1015.68
2018-02-16T08:22:51.401Z,1015.69
2018-02-16T08:23:51.456Z,1015.74
2018-02-16T08:24:51.507Z,1015.76
2018-02-16T08:25:51.561Z,1015.76
2018-02-16T08:26:51.621Z,1015.83
2018-02-16T08:27:51.671Z,1015.81
2018-02-16T08:28:51.722Z,1015.84
2018-02-16T08:29:51.776Z,1015.84
2018-02-16T08:30:51.829Z,1015.81
2018-02-16T08:31:51.883Z,1015.85
2018-02-16T08:32:51.939Z,1015.88
2018-02-16T08:33:51.992Z,1015.87
2018-02-16T08:34:52.048Z,1015.89
2018-02-16T08:35:52.102Z,1015.90
2018-02-16T08:36:52.154Z,1015.89
2018-02-16T08:37:52.208Z,1015.89
2018-02-16T08:38:52.260Z,1015.92
2018-02-16T08:39:52.466Z,1015.92
2018-02-16T08:40:52.368Z,1015.92
2018-02-16T08:41:52.422Z,1015.91
2018-02-16T08:42:52.477Z,1015.92
2018-02-16T08:43:52.532Z,1015.95
2018-02-16T08:44:52.584Z,1015.95
2018-02-16T08:45:52.641Z,1015.97
2018-02-16T08:46:52.692Z,1016.00
2018-02-16T08:47:52.748Z,1015.96
2018-02-16T08:48:52.800Z,1016.03
2018-02-16T08:49:52.855Z,1016.01
2018-02-16T08:50:52.908Z,1016.01
2018-02-16T08:51:53.163Z,1016.06
2018-02-16T08:52:53.306Z,1016.05
2018-02-16T08:53:53.072Z,1016.07
2018-02-16T08:54:53.124Z,1016.09
2018-02-16T08:55:53.180Z,1016.17
2018-02-16T08:56:53.233Z,1016.16
2018-02-16T08:57:53.287Z,1016.17
2018-02-16T08:58:53.341Z,1016.17
2018-02-16T08:59:53.397Z,1016.20
2018-02-16T09:00:53.457Z,1016.20
2018-02-16T09:01:53.504Z,1016.20
2018-02-16T09:02:53.712Z,1016.20
2018-02-16T09:03:53.614Z,1016.20
2018-02-16T09:04:53.667Z,1016.21
2018-02-16T09:05:53.723Z,1016.22
2018-02-16T09:06:53.777Z,1016.21
2018-02-16T09:07:53.831Z,1016.25
2018-02-16T09:08:53.884Z,1016.28
2018-02-16T09:09:53.976Z,1016.30
2018-02-16T09:10:53.996Z,1016.29
2018-02-16T09:11:54.061Z,1016.29
2018-02-16T09:12:54.102Z,1016.25
2018-02-16T09:13:54.241Z,1016.23
2018-02-16T09:14:54.212Z,1016.27
2018-02-16T09:15:54.266Z,1016.29
2018-02-16T09:16:54.321Z,1016.28
2018-02-16T09:17:54.376Z,1016.30
2018-02-16T09:18:54.433Z,1016.27
2018-02-16T09:19:54.485Z,1016.30
2018-02-16T09:20:54.540Z,1016.29
2018-02-16T09:21:54.593Z,1016.30
2018-02-16T09:22:54.649Z,1016.31
2018-02-16T09:23:54.704Z,1016.30
2018-02-16T09:24:54.758Z,1016.30
2018-02-16T09:25:54.813Z,1016.30
2018-02-16T09:26:54.867Z,1016.36
2018-02-16T09:27:54.942Z,1016.34
2018-02-16T09:28:54.978Z,1016.39
2018-02-16T09:29:55.034Z,1016.39
2018-02-16T09:30:55.089Z,1016.37
2018-02-16T09:31:55.297Z,1016.39
2018-02-16T09:32:55.198Z,1016.38
2018-02-16T09:33:55.252Z,1016.37
2018-02-16T09:34:55.311Z,1016.42
2018-02-16T09:35:55.371Z,1016.42
2018-02-16T09:36:55.421Z,1016.42
2018-02-16T09:37:55.474Z,1016.40
2018-02-16T09:38:55.961Z,1016.43
2018-02-16T09:39:55.587Z,1016.48
2018-02-16T09:40:55.660Z,1016.51
2018-02-16T09:41:55.696Z,1016.59
2018-02-16T09:42:55.752Z,1016.62
2018-02-16T09:43:55.807Z,1016.60
2018-02-16T09:44:55.862Z,1016.56
2018-02-16T09:45:55.920Z,1016.58
2018-02-16T09:46:55.976Z,1016.63
2018-02-16T09:47:56.032Z,1016.57
2018-02-16T09:48:56.086Z,1016.60
2018-02-16T09:49:56.148Z,1016.65
2018-02-16T09:50:56.198Z,1016.72
2018-02-16T09:51:56.258Z,1016.67
2018-02-16T09:52:56.311Z,1016.68
2018-02-16T09:53:56.367Z,1016.70
2018-02-16T09:54:56.424Z,1016.69
2018-02-16T09:55:57.238Z,1016.69
2018-02-16T09:56:56.537Z,1016.75
2018-02-16T09:57:56.594Z,1016.75
2018-02-16T09:58:56.967Z,1016.79
2018-02-16T09:59:56.907Z,1016.83
2018-02-16T10:00:56.807Z,1016.80
2018-02-16T10:01:56.819Z,1016.80
2018-02-16T10:02:56.877Z,1016.85
2018-02-16T10:03:56.935Z,1016.85
2018-02-16T10:04:56.989Z,1016.84
2018-02-16T10:05:57.049Z,1016.84
2018-02-16T10:06:57.104Z,1016.82
2018-02-16T10:07:57.161Z,1016.87
2018-02-16T10:08:57.218Z,1016.95
2018-02-16T10:09:57.275Z,1016.94
2018-02-16T10:10:57.334Z,1016.95
2018-02-16T10:11:57.394Z,1016.98
2018-02-16T10:12:57.448Z,1016.99
2018-02-16T10:13:57.504Z,1016.93
2018-02-16T10:14:57.577Z,1016.99
2018-02-16T10:15:57.682Z,1017.00
2018-02-16T10:16:57.674Z,1016.95
2018-02-16T10:17:57.736Z,1016.96
2018-02-16T10:18:57.791Z,1016.94
2018-02-16T10:19:57.849Z,1016.92
2018-02-16T10:20:57.906Z,1016.90
2018-02-16T10:21:57.974Z,1016.86
2018-02-16T10:22:58.021Z,1016.86
2018-02-16T10:23:58.328Z,1016.89
2018-02-16T10:24:58.135Z,1016.91
2018-02-16T10:25:58.192Z,1016.92
2018-02-16T10:26:58.251Z,1016.89
2018-02-16T10:27:58.309Z,1016.91
2018-02-16T10:28:58.367Z,1017.01
2018-02-16T10:29:58.423Z,1016.97
2018-02-16T10:30:58.481Z,1017.00
2018-02-16T10:31:58.554Z,1017.02
2018-02-16T10:32:58.636Z,1016.98
2018-02-16T10:33:58.651Z,1017.00
2018-02-16T10:34:58.710Z,1016.97
2018-02-16T10:35:58.769Z,1016.96
2018-02-16T10:36:58.824Z,1016.95
2018-02-16T10:37:58.882Z,1016.96
2018-02-16T10:38:58.941Z,1016.90
2018-02-16T10:39:58.997Z,1016.86
2018-02-16T10:40:59.831Z,1016.81
2018-02-16T10:41:59.141Z,1016.81
2018-02-16T10:42:59.170Z,1016.80
2018-02-16T10:43:59.229Z,1016.79
2018-02-16T10:44:59.285Z,1016.79
2018-02-16T10:45:59.342Z,1016.81
2018-02-16T10:46:59.552Z,1016.83
2018-02-16T10:47:59.460Z,1016.83
2018-02-16T10:48:59.515Z,1016.81
2018-02-16T10:49:59.918Z,1016.85
2018-02-16T10:50:59.676Z,1016.87
2018-02-16T10:51:59.690Z,1016.85
2018-02-16T10:52:59.776Z,1016.84
2018-02-16T10:53:59.802Z,1016.81
2018-02-16T10:54:59.871Z,1016.79
2018-02-16T10:55:59.919Z,1016.79
2018-02-16T10:56:59.974Z,1016.80
2018-02-16T10:58:00.033Z,1016.81
2018-02-16T10:59:00.091Z,1016.78
2018-02-16T11:00:00.152Z,1016.80
2018-02-16T11:01:00.205Z,1016.80
2018-02-16T11:02:00.266Z,1016.78
2018-02-16T11:03:00.327Z,1016.79
2018-02-16T11:04:00.377Z,1016.79
2018-02-16T11:05:00.435Z,1016.88
2018-02-16T11:06:00.491Z,1016.89
2018-02-16T11:07:00.551Z,1016.89
2018-02-16T11:08:01.013Z,1016.91
2018-02-16T11:09:00.665Z,1016.92
2018-02-16T11:10:00.723Z,1016.99
2018-02-16T11:11:00.781Z,1017.07
2018-02-16T11:12:00.838Z,1017.04
2018-02-16T11:13:00.896Z,1017.02
2018-02-16T11:14:00.955Z,1016.95
2018-02-16T11:15:01.013Z,1016.98
2018-02-16T11:16:01.070Z,1017.00
2018-02-16T11:17:01.128Z,1017.00
2018-02-16T11:18:01.186Z,1017.03
2018-02-16T11:19:01.246Z,1017.03
2018-02-16T11:20:01.306Z,1017.04
2018-02-16T11:21:01.363Z,1017.05
2018-02-16T11:22:01.421Z,1017.00
2018-02-16T11:23:01.483Z,1017.01
2018-02-16T11:24:01.540Z,1017.03
2018-02-16T11:25:01.598Z,1016.99
2018-02-16T11:26:01.657Z,1017.03
2018-02-16T11:27:01.714Z,1016.99
2018-02-16T11:28:01.774Z,1016.92
2018-02-16T11:29:01.834Z,1016.97
2018-02-16T11:30:02.277Z,1016.94
2018-02-16T11:31:01.954Z,1017.03
2018-02-16T11:32:02.012Z,1017.07
2018-02-16T11:33:02.069Z,1017.10
2018-02-16T11:34:02.128Z,1017.15
2018-02-16T11:35:02.187Z,1017.28
2018-02-16T11:36:02.246Z,1017.35
2018-02-16T11:37:02.306Z,1017.51
2018-02-16T11:38:02.366Z,1017.69
2018-02-16T11:39:02.425Z,1017.64
2018-02-16T11:40:02.484Z,1017.62
2018-02-16T11:41:02.853Z,1017.54
2018-02-16T11:42:02.604Z,1017.54
2018-02-16T11:43:02.664Z,1017.57
2018-02-16T11:44:02.723Z,1017.68
2018-02-16T11:45:02.784Z,1017.67
2018-02-16T11:46:02.843Z,1017.65
2018-02-16T11:47:02.905Z,1017.69
2018-02-16T11:48:02.967Z,1017.13
2018-02-16T11:49:03.026Z,1017.15
2018-02-16T11:50:03.089Z,1017.21
2018-02-16T11:51:03.149Z,1017.24
2018-02-16T11:52:03.211Z,1017.51
2018-02-16T11:53:03.281Z,1017.64
2018-02-16T11:54:03.333Z,1017.20
2018-02-16T11:55:03.393Z,1017.06
2018-02-16T11:56:03.454Z,1017.22
2018-02-16T11:57:03.826Z,1017.21
2018-02-16T11:58:03.594Z,1018.35
2018-02-16T11:59:03.636Z,1018.69
2018-02-16T12:00:03.704Z,1018.53
2018-02-16T12:01:03.759Z,1017.77
2018-02-16T12:02:03.824Z,1017.27
2018-02-16T12:03:03.877Z,1019.42
2018-02-16T12:04:03.938Z,1019.70
2018-02-16T12:05:03.999Z,1019.33
2018-02-16T12:06:04.060Z,1018.86